Latest Coastal Weather Observations for Hervey Bay

IDQ60701

Issued at 12:12 am EST Wednesday 16 October 2019 (issued every 10 minutes, with the page automatically refreshed every 10 minutes)

About coastal observations | Map of coastal stations | Coastal observations for QLD | Marine services | Other Formats
Station Details ID: 040405 Name: HERVEY BAY AIRPORT Lat: -25.32 Lon: 152.88 Height: 12.98 m
Data from the previous 72 hours. | See also: Recent months at Hervey Bay
Date/Time
EST
Wind Sea
Height
m
Swell Vis
km
Cloud Weather Temp
°C
Press
hPa
Rain since
9am
mm
Dir  Spd
kts
Gust
kts
Height
m
Period
s
Dir
16/12:00am N 10 14 - - - - 10 Cloudy - 22.8 1014.3 0.0
 
Date/Time
EST
Wind Sea
Height
m
Swell Vis
km
Cloud Weather Temp
°C
Press
hPa
Rain since
9am
mm
Dir  Spd
kts
Gust
kts
Height
m
Period
s
Dir
15/11:30pm N 9 15 - - - - 10 Partly cloudy - 22.8 1014.5 0.0
15/11:00pm N 9 14 - - - - 10 Partly cloudy - 23.1 1014.5 0.0
15/10:30pm N 10 16 - - - - 10 Partly cloudy - 23.1 1014.4 0.0
15/10:00pm N 11 19 - - - - 10 Partly cloudy - 22.8 1014.1 0.0
15/09:30pm N 10 13 - - - - 10 Partly cloudy - 22.8 1014.0 0.0
15/09:00pm N 10 14 - - - - 10 Cloudy - 22.8 1013.8 0.0
15/08:30pm NNE 11 18 - - - - 10 Partly cloudy - 22.7 1013.6 0.0
15/08:00pm N 11 18 - - - - 10 Partly cloudy - 22.6 1013.3 0.0
15/07:30pm N 11 17 - - - - 10 Partly cloudy - 22.5 1013.1 0.0
15/07:00pm NNE 12 19 - - - - 10 Partly cloudy - 22.6 1012.9 0.0
15/06:30pm N 11 17 - - - - 10 Partly cloudy - 22.6 1012.5 0.0
15/06:00pm N 11 17 - - - - 10 Mostly clear - 22.7 1012.3 0.0
15/05:30pm N 12 18 - - - - 10 - - 23.1 1012.0 0.0
15/05:00pm N 11 17 - - - - 10 - - 23.8 1011.8 0.0
15/04:30pm N 13 19 - - - - 10 - - 24.4 1011.7 0.0
15/04:00pm N 14 20 - - - - 10 - - 24.2 1011.7 0.0
15/03:30pm N 14 20 - - - - 10 - - 24.6 1011.8 0.0
15/03:00pm N 14 20 - - - - 10 - - 25.0 1011.7 0.0
15/02:30pm N 15 20 - - - - 10 - - 24.7 1011.8 0.0
15/02:00pm N 16 22 - - - - 10 - - 25.1 1012.1 0.0
15/01:30pm N 16 23 - - - - 10 - - 25.2 1012.5 0.0
15/01:00pm N 16 23 - - - - 10 Partly cloudy - 25.0 1013.1 0.0
15/12:30pm N 14 19 - - - - 10 Partly cloudy - 25.5 1013.5 0.0
15/12:00pm N 14 19 - - - - 10 Cloudy - 24.8 1013.7 0.0
15/11:30am N 12 17 - - - - 10 Cloudy - 23.7 1014.2 0.0
15/11:00am N 11 18 - - - - 10 Cloudy - 23.6 1014.4 0.0
15/10:30am N 12 17 - - - - 10 Cloudy - 23.4 1014.7 0.0
15/10:00am N 13 19 - - - - 10 Partly cloudy - 23.5 1015.2 0.0
15/09:30am N 14 20 - - - - 10 Partly cloudy - 23.7 1015.3 0.0
15/09:00am N 13 22 - - - - 10 Cloudy - 24.5 1015.4 0.0
15/08:30am N 14 21 - - - - 10 Partly cloudy - 24.7 1015.1 0.0
15/08:00am N 15 22 - - - - 10 Partly cloudy - 23.7 1015.2 0.0
15/07:30am NNW 15 20 - - - - 10 Partly cloudy - 23.4 1015.3 0.0
15/07:00am N 13 21 - - - - 10 Partly cloudy - 23.0 1015.2 0.0
15/06:30am N 11 18 - - - - 10 Partly cloudy - 22.4 1015.2 0.0
15/06:00am N 10 16 - - - - 10 Cloudy - 22.2 1015.0 0.0
15/05:30am N 9 14 - - - - 10 Partly cloudy - 21.8 1014.7 0.0
15/05:00am N 9 14 - - - - 10 Partly cloudy - 21.7 1014.7 0.0
15/04:30am N 10 16 - - - - 10 Partly cloudy - 21.6 1014.2 0.0
15/04:00am N 11 16 - - - - 10 Partly cloudy - 21.5 1013.6 0.0
15/03:30am N 9 12 - - - - 10 Partly cloudy - 21.4 1013.6 0.0
15/03:00am N 10 16 - - - - 10 Mostly cloudy - 21.6 1013.6 0.0
15/02:30am N 12 17 - - - - 10 Partly cloudy - 21.6 1013.6 0.0
15/02:00am N 11 16 - - - - 10 Partly cloudy - 21.7 1014.1 0.0
15/01:30am N 11 17 - - - - 10 Partly cloudy - 21.7 1014.1 0.0
15/01:00am N 11 16 - - - - 10 Partly cloudy - 21.6 1014.6 0.0
15/12:30am N 11 16 - - - - 10 Partly cloudy - 21.6 1015.0 0.0
15/12:00am N 12 17 - - - - 10 Mostly clear - 21.7 1015.0 0.0
 
Date/Time
EST
Wind Sea
Height
m
Swell Vis
km
Cloud Weather Temp
°C
Press
hPa
Rain since
9am
mm
Dir  Spd
kts
Gust
kts
Height
m
Period
s
Dir
14/11:30pm N 11 17 - - - - 10 Partly cloudy - 21.7 1015.3 0.0
14/11:00pm N 11 17 - - - - 10 Partly cloudy - 21.7 1015.5 0.0
14/10:30pm N 11 15 - - - - 10 Partly cloudy - 21.7 1016.1 0.0
14/10:00pm N 10 15 - - - - 10 Partly cloudy - 21.6 1016.1 0.0
14/09:30pm N 11 17 - - - - 10 - - 21.7 1016.3 0.0
14/09:00pm N 9 13 - - - - 10 - - 21.6 1016.5 0.0
14/08:30pm N 10 15 - - - - 10 - - 21.8 1016.4 0.0
14/08:00pm N 8 13 - - - - 10 - - 21.4 1016.4 0.0
14/07:30pm N 7 11 - - - - 10 - - 21.7 1016.2 0.0
14/07:00pm N 9 13 - - - - 10 - - 21.7 1015.7 0.0
14/06:30pm N 9 14 - - - - 10 - - 21.7 1015.4 0.0
14/06:00pm N 9 12 - - - - 10 - - 21.9 1015.1 0.0
14/05:30pm N 8 11 - - - - 10 - - 22.4 1014.9 0.0
14/05:00pm N 10 14 - - - - 10 - - 22.9 1014.9 0.0
14/04:30pm N 10 14 - - - - 10 - - 23.3 1014.8 0.0
14/04:00pm N 12 16 - - - - 10 - - 23.9 1014.6 0.0
14/03:30pm N 12 15 - - - - 10 - - 23.9 1014.7 0.0
14/03:00pm N 12 17 - - - - 10 - - 24.3 1014.9 0.0
14/02:30pm N 11 15 - - - - 10 - - 25.1 1015.1 0.0
14/02:00pm N 10 14 - - - - 10 - - 24.5 1015.6 0.0
14/01:30pm N 11 19 - - - - 10 - - 25.0 1016.0 0.0
14/01:00pm N 11 15 - - - - 10 - - 24.6 1016.3 0.0
14/12:30pm N 10 13 - - - - 10 - - 25.1 1016.8 0.0
14/12:00pm N 10 13 - - - - 10 - - 25.4 1017.3 0.0
14/11:30am N 10 14 - - - - 10 - - 24.5 1017.7 0.0
14/11:00am N 9 13 - - - - 10 - - 24.6 1018.2 0.0
14/10:30am N 8 11 - - - - 10 - - 23.7 1018.7 0.0
14/10:00am N 9 12 - - - - 10 - - 23.0 1018.8 0.0
14/09:30am NE 5 9 - - - - 10 Partly cloudy - 23.3 1019.2 0.0
14/09:00am ENE 6 9 - - - - 10 - - 22.9 1019.6 0.0
14/08:30am NNE 6 8 - - - - 10 - - 22.3 1019.6 0.0
14/08:00am W 2 5 - - - - 10 - - 21.3 1019.6 0.0
14/07:30am SSW 5 6 - - - - 10 - - 19.3 1019.6 0.0
14/07:00am SSW 5 7 - - - - 10 - - 17.8 1019.5 0.0
14/06:30am SW 5 6 - - - - 10 - - 16.3 1019.4 0.0
14/06:00am SW 3 6 - - - - 10 - - 15.2 1019.2 0.0
14/05:30am CALM 0 0 - - - - 10 - - 13.4 1018.7 0.0
14/05:00am SSW 3 4 - - - - 10 - - 13.2 1018.3 0.0
14/04:30am SW 3 4 - - - - 10 - - 13.7 1018.1 0.0
14/04:00am SW 3 4 - - - - 10 Partly cloudy - 14.2 1017.9 0.0
14/03:30am SSW 3 4 - - - - 10 - - 14.1 1017.9 0.0
14/03:00am SSW 3 4 - - - - 10 - - 14.0 1018.0 0.0
14/02:30am SSW 3 4 - - - - 10 - - 14.3 1018.0 0.0
14/02:00am CALM 0 0 - - - - 10 Partly cloudy - 14.8 1018.2 0.0
14/01:30am CALM 0 0 - - - - 10 - - 15.0 1018.5 0.0
14/01:00am WSW 3 4 - - - - 10 Partly cloudy - 15.2 1018.9 0.0
14/12:30am SW 2 3 - - - - 10 - - 15.0 1019.0 0.0
14/12:00am SSW 4 5 - - - - 10 Mostly clear - 15.8 1018.8 0.0
 
Date/Time
EST
Wind Sea
Height
m
Swell Vis
km
Cloud Weather Temp
°C
Press
hPa
Rain since
9am
mm
Dir  Spd
kts
Gust
kts
Height
m
Period
s
Dir
13/11:30pm SSW 3 4 - - - - 10 Partly cloudy - 16.2 1019.0 0.0
13/11:00pm SSE 4 5 - - - - 10 - - 18.3 1019.1 0.0
13/10:30pm SSE 4 6 - - - - 10 Partly cloudy - 18.7 1019.0 0.0
13/10:00pm SE 5 7 - - - - 10 Partly cloudy - 19.1 1019.0 0.0
13/09:30pm SE 5 8 - - - - 10 - - 19.0 1018.8 0.0
13/09:00pm SSE 6 11 - - - - 10 - - 19.3 1018.7 0.0
13/08:30pm SSE 8 13 - - - - 10 - - 19.8 1018.6 0.0
13/08:00pm SSE 7 12 - - - - 10 - - 19.8 1018.1 0.0
13/07:30pm SSE 6 10 - - - - 10 - - 19.5 1017.6 0.0
13/07:00pm SSE 6 10 - - - - 10 - - 19.4 1017.1 0.0
13/06:30pm SE 7 14 - - - - 10 - - 19.8 1016.7 0.0
13/06:00pm SE 10 16 - - - - 10 - - 20.0 1016.2 0.0
13/05:30pm SE 11 18 - - - - 10 - - 20.5 1015.8 0.0
13/05:00pm SE 12 17 - - - - 10 - - 20.9 1015.5 0.0
13/04:30pm ESE 12 19 - - - - 10 - - 21.9 1015.1 0.0
13/04:00pm ESE 13 20 - - - - 10 - - 22.3 1014.9 0.0
13/03:30pm ESE 15 20 - - - - 10 - - 23.1 1014.8 0.0
13/03:00pm SE 15 19 - - - - 10 - - 23.0 1014.6 0.0
13/02:30pm ESE 14 19 - - - - 10 - - 23.9 1014.7 0.0
13/02:00pm ESE 15 20 - - - - 10 - - 24.7 1014.7 0.0
13/01:30pm ESE 16 20 - - - - 10 - - 24.8 1014.8 0.0
13/01:00pm SE 13 19 - - - - 10 Partly cloudy - 24.9 1015.0 0.0
13/12:30pm ESE 12 17 - - - - 10 Partly cloudy - 24.5 1015.5 0.0
13/12:00pm ESE 13 18 - - - - 10 Cloudy - 24.4 1015.8 0.0
13/11:30am ESE 13 17 - - - - 10 Partly cloudy - 22.4 1016.3 0.0
13/11:00am E 11 15 - - - - 10 - - 23.1 1016.7 0.0
13/10:30am ESE 10 16 - - - - 10 - - 23.3 1017.0 0.0
13/10:00am WSW 5 11 - - - - 10 - - 22.1 1017.2 0.0
13/09:30am SSW 5 9 - - - - 10 - - 21.1 1017.2 0.0
13/09:00am SSW 7 11 - - - - 10 - Recent precip. 20.7 1017.3 2.8
13/08:30am S 8 11 - - - - 10 - - 20.1 1017.3 2.6
13/08:00am S 7 10 - - - - 10 - - 19.2 1017.3 2.6
13/07:30am SW 6 8 - - - - 10 - - 16.8 1017.2 2.6
13/07:00am SSW 6 8 - - - - 10 Partly cloudy - 15.2 1017.1 2.6
13/06:30am SW 5 7 - - - - 10 Cloudy - 14.0 1016.9 2.6
13/06:00am WSW 4 5 - - - - 10 Mostly clear - 13.1 1016.5 2.6
13/05:30am W 2 3 - - - - 10 - - 11.9 1015.7 2.6
13/05:00am SW 5 6 - - - - 10 - - 12.6 1015.4 2.6
13/04:30am SW 5 8 - - - - 10 - - 12.7 1015.0 2.6
13/04:00am SW 6 8 - - - - 10 - - 13.1 1014.5 2.6
13/03:30am SW 3 5 - - - - 10 - - 12.9 1014.1 2.6
13/03:00am SW 4 5 - - - - 10 - - 13.1 1014.0 2.6
13/02:30am SW 5 7 - - - - 10 - - 13.5 1013.8 2.6
13/02:00am SW 5 7 - - - - 10 - - 13.6 1014.0 2.6
13/01:30am SW 5 7 - - - - 10 - - 13.9 1014.1 2.6
13/01:00am SW 5 7 - - - - 10 - - 14.0 1014.2 2.6
13/12:30am SSW 5 6 - - - - 10 - - 14.1 1014.3 2.6

Other formats

Comma delimited format used in spreadsheet applications
http://www.bom.gov.au/fwo/IDQ60701/IDQ60701.95565.axf

JavaScript Object Notation format (JSON) in row-major order
http://www.bom.gov.au/fwo/IDQ60701/IDQ60701.95565.json

Data quality

Most of these data are generated automatically and are frequently updated. Quality checks on data are not normally performed. It is possible for incorrect values to appear. Refer to information at About Latest Weather Observations and please check the disclaimer before using these data.